sensor_id;sensor_type;location;lat;lon;timestamp;temperature;humidity
6307;DHT22;3186;54.062;9.962;2022-09-03T00:00:15;17.90;51.40
6307;DHT22;3186;54.062;9.962;2022-09-03T00:05:28;18.00;43.30
6307;DHT22;3186;54.062;9.962;2022-09-03T00:08:05;17.90;43.70
6307;DHT22;3186;54.062;9.962;2022-09-03T00:11:02;17.90;44.70
6307;DHT22;3186;54.062;9.962;2022-09-03T00:16:17;17.80;46.50
6307;DHT22;3186;54.062;9.962;2022-09-03T00:18:56;17.80;44.30
6307;DHT22;3186;54.062;9.962;2022-09-03T00:21:45;17.80;47.20
6307;DHT22;3186;54.062;9.962;2022-09-03T00:24:14;17.80;47.20
6307;DHT22;3186;54.062;9.962;2022-09-03T00:26:45;17.80;50.10
6307;DHT22;3186;54.062;9.962;2022-09-03T00:29:38;17.70;48.70
6307;DHT22;3186;54.062;9.962;2022-09-03T00:32:10;17.70;48.70
6307;DHT22;3186;54.062;9.962;2022-09-03T00:34:41;17.80;46.60
6307;DHT22;3186;54.062;9.962;2022-09-03T00:37:08;17.70;50.80
6307;DHT22;3186;54.062;9.962;2022-09-03T00:39:35;17.70;50.00
6307;DHT22;3186;54.062;9.962;2022-09-03T00:42:27;17.70;52.70
6307;DHT22;3186;54.062;9.962;2022-09-03T00:56:33;17.60;52.80
6307;DHT22;3186;54.062;9.962;2022-09-03T00:59:27;17.60;53.50
6307;DHT22;3186;54.062;9.962;2022-09-03T01:02:06;17.50;56.70
6307;DHT22;3186;54.062;9.962;2022-09-03T01:13:40;17.50;56.50
6307;DHT22;3186;54.062;9.962;2022-09-03T01:25:42;17.50;58.20
6307;DHT22;3186;54.062;9.962;2022-09-03T01:31:52;17.40;58.50
6307;DHT22;3186;54.062;9.962;2022-09-03T01:34:52;17.40;59.60
6307;DHT22;3186;54.062;9.962;2022-09-03T01:37:52;17.40;58.20
6307;DHT22;3186;54.062;9.962;2022-09-03T01:40:42;17.40;58.80
6307;DHT22;3186;54.062;9.962;2022-09-03T01:43:36;17.40;56.50
6307;DHT22;3186;54.062;9.962;2022-09-03T01:46:18;17.40;56.00
6307;DHT22;3186;54.062;9.962;2022-09-03T01:49:01;17.40;55.80
6307;DHT22;3186;54.062;9.962;2022-09-03T01:51:28;17.40;58.30
6307;DHT22;3186;54.062;9.962;2022-09-03T01:54:19;17.40;56.20
6307;DHT22;3186;54.062;9.962;2022-09-03T01:57:21;17.30;57.80
6307;DHT22;3186;54.062;9.962;2022-09-03T01:59:59;17.40;56.60
6307;DHT22;3186;54.062;9.962;2022-09-03T02:02:38;17.30;58.00
6307;DHT22;3186;54.062;9.962;2022-09-03T02:05:09;17.30;60.00
6307;DHT22;3186;54.062;9.962;2022-09-03T02:07:42;17.30;61.70
6307;DHT22;3186;54.062;9.962;2022-09-03T02:11:02;17.30;56.70
6307;DHT22;3186;54.062;9.962;2022-09-03T02:13:25;17.30;56.70
6307;DHT22;3186;54.062;9.962;2022-09-03T02:15:54;17.30;57.90
6307;DHT22;3186;54.062;9.962;2022-09-03T02:18:35;17.30;57.10
6307;DHT22;3186;54.062;9.962;2022-09-03T02:21:02;17.30;56.50
6307;DHT22;3186;54.062;9.962;2022-09-03T02:23:28;17.20;58.90
6307;DHT22;3186;54.062;9.962;2022-09-03T02:25:57;17.20;61.60
6307;DHT22;3186;54.062;9.962;2022-09-03T02:28:24;17.20;61.90
6307;DHT22;3186;54.062;9.962;2022-09-03T02:30:50;17.20;58.80
6307;DHT22;3186;54.062;9.962;2022-09-03T02:33:16;17.20;58.60
6307;DHT22;3186;54.062;9.962;2022-09-03T02:35:43;17.20;59.50
6307;DHT22;3186;54.062;9.962;2022-09-03T02:38:14;17.20;58.80
6307;DHT22;3186;54.062;9.962;2022-09-03T02:40:41;17.10;58.90
6307;DHT22;3186;54.062;9.962;2022-09-03T02:43:18;17.20;58.90
6307;DHT22;3186;54.062;9.962;2022-09-03T02:45:47;17.20;59.40
6307;DHT22;3186;54.062;9.962;2022-09-03T02:48:19;17.10;58.00
6307;DHT22;3186;54.062;9.962;2022-09-03T02:50:47;17.10;58.80
6307;DHT22;3186;54.062;9.962;2022-09-03T02:53:13;17.10;58.80
6307;DHT22;3186;54.062;9.962;2022-09-03T02:55:39;17.10;59.30
6307;DHT22;3186;54.062;9.962;2022-09-03T02:58:05;17.10;59.60
6307;DHT22;3186;54.062;9.962;2022-09-03T03:00:34;17.00;58.60
6307;DHT22;3186;54.062;9.962;2022-09-03T03:03:02;17.00;66.10
6307;DHT22;3186;54.062;9.962;2022-09-03T03:05:50;17.00;61.30
6307;DHT22;3186;54.062;9.962;2022-09-03T03:08:18;17.00;61.60
6307;DHT22;3186;54.062;9.962;2022-09-03T03:10:46;17.00;61.70
6307;DHT22;3186;54.062;9.962;2022-09-03T03:13:14;17.00;61.40
6307;DHT22;3186;54.062;9.962;2022-09-03T03:15:41;16.90;61.20
6307;DHT22;3186;54.062;9.962;2022-09-03T03:18:07;16.90;61.40
6307;DHT22;3186;54.062;9.962;2022-09-03T03:20:37;16.90;61.10
6307;DHT22;3186;54.062;9.962;2022-09-03T03:23:04;16.90;61.30
6307;DHT22;3186;54.062;9.962;2022-09-03T03:25:34;16.80;61.50
6307;DHT22;3186;54.062;9.962;2022-09-03T03:28:00;16.80;61.30
6307;DHT22;3186;54.062;9.962;2022-09-03T03:30:26;16.80;61.40
6307;DHT22;3186;54.062;9.962;2022-09-03T03:32:53;16.80;61.70
6307;DHT22;3186;54.062;9.962;2022-09-03T03:35:19;16.80;61.40
6307;DHT22;3186;54.062;9.962;2022-09-03T03:37:46;16.70;61.40
6307;DHT22;3186;54.062;9.962;2022-09-03T03:40:12;16.70;74.30
6307;DHT22;3186;54.062;9.962;2022-09-03T03:42:38;16.60;64.90
6307;DHT22;3186;54.062;9.962;2022-09-03T03:45:04;16.70;63.50
6307;DHT22;3186;54.062;9.962;2022-09-03T03:47:31;16.70;61.90
6307;DHT22;3186;54.062;9.962;2022-09-03T03:49:58;16.60;66.50
6307;DHT22;3186;54.062;9.962;2022-09-03T03:52:25;16.60;63.90
6307;DHT22;3186;54.062;9.962;2022-09-03T03:54:52;16.60;64.30
6307;DHT22;3186;54.062;9.962;2022-09-03T03:57:18;16.50;62.90
6307;DHT22;3186;54.062;9.962;2022-09-03T03:59:46;16.50;63.60
6307;DHT22;3186;54.062;9.962;2022-09-03T04:02:12;16.50;63.40
6307;DHT22;3186;54.062;9.962;2022-09-03T04:04:38;16.50;64.10
6307;DHT22;3186;54.062;9.962;2022-09-03T04:07:04;16.40;64.50
6307;DHT22;3186;54.062;9.962;2022-09-03T04:09:30;16.40;64.70
6307;DHT22;3186;54.062;9.962;2022-09-03T04:11:56;16.40;64.80
6307;DHT22;3186;54.062;9.962;2022-09-03T04:14:23;16.40;65.50
6307;DHT22;3186;54.062;9.962;2022-09-03T04:16:49;16.30;65.90
6307;DHT22;3186;54.062;9.962;2022-09-03T04:19:16;16.30;65.00
6307;DHT22;3186;54.062;9.962;2022-09-03T04:21:42;16.30;65.20
6307;DHT22;3186;54.062;9.962;2022-09-03T04:24:08;16.20;65.80
6307;DHT22;3186;54.062;9.962;2022-09-03T04:26:35;16.20;65.60
6307;DHT22;3186;54.062;9.962;2022-09-03T04:29:06;16.20;66.00
6307;DHT22;3186;54.062;9.962;2022-09-03T04:31:33;16.20;66.50
6307;DHT22;3186;54.062;9.962;2022-09-03T04:34:00;16.20;73.60
6307;DHT22;3186;54.062;9.962;2022-09-03T04:36:28;16.10;67.40
6307;DHT22;3186;54.062;9.962;2022-09-03T04:38:56;16.10;67.60
6307;DHT22;3186;54.062;9.962;2022-09-03T04:41:28;16.10;68.00
6307;DHT22;3186;54.062;9.962;2022-09-03T04:43:56;16.00;68.00
6307;DHT22;3186;54.062;9.962;2022-09-03T04:46:24;16.00;67.90
6307;DHT22;3186;54.062;9.962;2022-09-03T04:48:52;16.00;68.60
6307;DHT22;3186;54.062;9.962;2022-09-03T04:51:21;16.00;69.10
6307;DHT22;3186;54.062;9.962;2022-09-03T04:53:53;16.00;68.60
6307;DHT22;3186;54.062;9.962;2022-09-03T04:56:21;16.00;68.80
6307;DHT22;3186;54.062;9.962;2022-09-03T04:58:48;15.90;70.20
6307;DHT22;3186;54.062;9.962;2022-09-03T05:01:21;15.90;71.30
6307;DHT22;3186;54.062;9.962;2022-09-03T05:03:47;15.90;70.30
6307;DHT22;3186;54.062;9.962;2022-09-03T05:06:14;15.90;69.30
6307;DHT22;3186;54.062;9.962;2022-09-03T05:08:42;15.80;70.50
6307;DHT22;3186;54.062;9.962;2022-09-03T05:11:08;15.80;71.70
6307;DHT22;3186;54.062;9.962;2022-09-03T05:13:35;15.80;70.50
6307;DHT22;3186;54.062;9.962;2022-09-03T05:16:09;15.80;71.20
6307;DHT22;3186;54.062;9.962;2022-09-03T05:18:35;15.80;72.70
6307;DHT22;3186;54.062;9.962;2022-09-03T05:21:06;15.80;71.70
6307;DHT22;3186;54.062;9.962;2022-09-03T05:23:36;15.80;71.00
6307;DHT22;3186;54.062;9.962;2022-09-03T05:26:05;15.80;70.60
6307;DHT22;3186;54.062;9.962;2022-09-03T05:28:35;15.80;71.00
6307;DHT22;3186;54.062;9.962;2022-09-03T05:31:21;15.80;71.30
6307;DHT22;3186;54.062;9.962;2022-09-03T05:33:50;15.80;71.20
6307;DHT22;3186;54.062;9.962;2022-09-03T05:36:18;15.80;70.40
6307;DHT22;3186;54.062;9.962;2022-09-03T05:38:45;15.80;70.00
6307;DHT22;3186;54.062;9.962;2022-09-03T05:41:13;15.80;72.70
6307;DHT22;3186;54.062;9.962;2022-09-03T05:43:40;15.80;70.80
6307;DHT22;3186;54.062;9.962;2022-09-03T05:46:08;15.80;70.20
6307;DHT22;3186;54.062;9.962;2022-09-03T05:48:35;15.80;74.00
6307;DHT22;3186;54.062;9.962;2022-09-03T05:53:34;15.80;69.40
6307;DHT22;3186;54.062;9.962;2022-09-03T05:56:02;15.90;70.40
6307;DHT22;3186;54.062;9.962;2022-09-03T05:58:37;15.90;68.90
6307;DHT22;3186;54.062;9.962;2022-09-03T06:01:18;15.90;68.80
6307;DHT22;3186;54.062;9.962;2022-09-03T06:03:46;16.00;65.90
6307;DHT22;3186;54.062;9.962;2022-09-03T06:06:13;16.00;67.70
6307;DHT22;3186;54.062;9.962;2022-09-03T06:08:40;16.00;67.50
6307;DHT22;3186;54.062;9.962;2022-09-03T06:11:07;16.00;66.90
6307;DHT22;3186;54.062;9.962;2022-09-03T06:13:34;16.00;69.60
6307;DHT22;3186;54.062;9.962;2022-09-03T06:16:02;16.00;68.40
6307;DHT22;3186;54.062;9.962;2022-09-03T06:18:29;16.10;71.00
6307;DHT22;3186;54.062;9.962;2022-09-03T06:21:04;16.10;70.50
6307;DHT22;3186;54.062;9.962;2022-09-03T06:23:31;16.10;69.60
6307;DHT22;3186;54.062;9.962;2022-09-03T06:26:04;16.20;74.30
6307;DHT22;3186;54.062;9.962;2022-09-03T06:28:35;16.20;67.50
6307;DHT22;3186;54.062;9.962;2022-09-03T06:31:05;16.20;72.00
6307;DHT22;3186;54.062;9.962;2022-09-03T06:33:33;16.20;65.50
6307;DHT22;3186;54.062;9.962;2022-09-03T06:36:01;16.30;67.40
6307;DHT22;3186;54.062;9.962;2022-09-03T06:38:29;16.30;63.40
6307;DHT22;3186;54.062;9.962;2022-09-03T06:41:02;16.30;68.20
6307;DHT22;3186;54.062;9.962;2022-09-03T06:43:31;16.30;73.10
6307;DHT22;3186;54.062;9.962;2022-09-03T06:46:00;16.30;80.00
6307;DHT22;3186;54.062;9.962;2022-09-03T06:48:28;16.30;64.30
6307;DHT22;3186;54.062;9.962;2022-09-03T06:53:38;16.40;64.80
6307;DHT22;3186;54.062;9.962;2022-09-03T06:56:07;16.40;66.60
6307;DHT22;3186;54.062;9.962;2022-09-03T06:58:38;16.40;73.50
6307;DHT22;3186;54.062;9.962;2022-09-03T07:01:12;16.50;69.70
6307;DHT22;3186;54.062;9.962;2022-09-03T07:03:40;16.50;65.20
6307;DHT22;3186;54.062;9.962;2022-09-03T07:06:17;16.60;71.20
6307;DHT22;3186;54.062;9.962;2022-09-03T07:08:44;16.60;65.80
6307;DHT22;3186;54.062;9.962;2022-09-03T07:11:16;16.70;65.90
6307;DHT22;3186;54.062;9.962;2022-09-03T07:13:49;16.70;65.30
6307;DHT22;3186;54.062;9.962;2022-09-03T07:16:17;16.70;71.30
6307;DHT22;3186;54.062;9.962;2022-09-03T07:18:43;16.80;61.60
6307;DHT22;3186;54.062;9.962;2022-09-03T07:21:15;16.90;59.30
6307;DHT22;3186;54.062;9.962;2022-09-03T07:23:41;16.90;61.30
6307;DHT22;3186;54.062;9.962;2022-09-03T07:26:10;16.90;62.90
6307;DHT22;3186;54.062;9.962;2022-09-03T07:28:38;17.10;59.30
6307;DHT22;3186;54.062;9.962;2022-09-03T07:31:07;17.20;55.20
6307;DHT22;3186;54.062;9.962;2022-09-03T07:33:33;17.20;49.00
6307;DHT22;3186;54.062;9.962;2022-09-03T07:36:11;17.30;49.10
6307;DHT22;3186;54.062;9.962;2022-09-03T07:38:39;17.40;53.70
6307;DHT22;3186;54.062;9.962;2022-09-03T07:41:07;17.60;47.80
6307;DHT22;3186;54.062;9.962;2022-09-03T07:43:44;17.40;46.90
6307;DHT22;3186;54.062;9.962;2022-09-03T07:46:19;17.50;44.80
6307;DHT22;3186;54.062;9.962;2022-09-03T07:48:57;17.60;38.90
6307;DHT22;3186;54.062;9.962;2022-09-03T07:51:27;18.00;40.10
6307;DHT22;3186;54.062;9.962;2022-09-03T07:53:55;18.30;40.60
6307;DHT22;3186;54.062;9.962;2022-09-03T07:56:23;18.60;34.70
6307;DHT22;3186;54.062;9.962;2022-09-03T07:58:49;18.80;30.80
6307;DHT22;3186;54.062;9.962;2022-09-03T08:01:18;18.80;28.40
6307;DHT22;3186;54.062;9.962;2022-09-03T08:03:46;18.50;22.20
6307;DHT22;3186;54.062;9.962;2022-09-03T08:06:13;18.60;26.80
6307;DHT22;3186;54.062;9.962;2022-09-03T08:08:40;18.50;24.90
6307;DHT22;3186;54.062;9.962;2022-09-03T08:11:08;18.70;27.60
6307;DHT22;3186;54.062;9.962;2022-09-03T08:13:37;18.90;22.70
6307;DHT22;3186;54.062;9.962;2022-09-03T08:16:03;18.90;23.30
6307;DHT22;3186;54.062;9.962;2022-09-03T08:18:31;18.90;23.70
6307;DHT22;3186;54.062;9.962;2022-09-03T08:21:00;19.10;23.20
6307;DHT22;3186;54.062;9.962;2022-09-03T08:23:26;19.50;18.20
6307;DHT22;3186;54.062;9.962;2022-09-03T08:26:01;19.50;22.00
6307;DHT22;3186;54.062;9.962;2022-09-03T08:28:28;20.00;16.70
6307;DHT22;3186;54.062;9.962;2022-09-03T08:30:54;19.60;17.10
6307;DHT22;3186;54.062;9.962;2022-09-03T08:33:21;19.90;14.20
6307;DHT22;3186;54.062;9.962;2022-09-03T08:36:13;19.60;15.20
6307;DHT22;3186;54.062;9.962;2022-09-03T08:38:40;20.10;13.50
6307;DHT22;3186;54.062;9.962;2022-09-03T08:41:19;20.80;8.90
6307;DHT22;3186;54.062;9.962;2022-09-03T08:46:56;21.10;1.30
6307;DHT22;3186;54.062;9.962;2022-09-03T08:51:55;21.50;1.00
6307;DHT22;3186;54.062;9.962;2022-09-03T08:54:29;21.50;1.00
6307;DHT22;3186;54.062;9.962;2022-09-03T08:56:58;21.60;1.00
6307;DHT22;3186;54.062;9.962;2022-09-03T08:59:24;21.40;1.00
6307;DHT22;3186;54.062;9.962;2022-09-03T09:05:57;21.40;1.00
6307;DHT22;3186;54.062;9.962;2022-09-03T09:08:13;21.40;1.00
6307;DHT22;3186;54.062;9.962;2022-09-03T09:10:48;21.40;1.00
6307;DHT22;3186;54.062;9.962;2022-09-03T09:13:27;21.90;1.00
6307;DHT22;3186;54.062;9.962;2022-09-03T09:16:30;21.70;1.00
6307;DHT22;3186;54.062;9.962;2022-09-03T09:19:12;21.80;1.00
6307;DHT22;3186;54.062;9.962;2022-09-03T09:21:53;22.50;1.00
6307;DHT22;3186;54.062;9.962;2022-09-03T09:24:26;23.10;1.00
6307;DHT22;3186;54.062;9.962;2022-09-03T09:26:57;23.60;1.00
6307;DHT22;3186;54.062;9.962;2022-09-03T09:29:30;23.40;1.00
6307;DHT22;3186;54.062;9.962;2022-09-03T09:31:56;23.40;1.00
6307;DHT22;3186;54.062;9.962;2022-09-03T09:34:22;23.40;1.00
6307;DHT22;3186;54.062;9.962;2022-09-03T09:36:52;23.20;1.00
6307;DHT22;3186;54.062;9.962;2022-09-03T09:39:18;23.30;1.00
6307;DHT22;3186;54.062;9.962;2022-09-03T09:42:20;23.00;1.00
6307;DHT22;3186;54.062;9.962;2022-09-03T09:44:46;23.60;1.00
6307;DHT22;3186;54.062;9.962;2022-09-03T09:47:20;24.30;1.00
6307;DHT22;3186;54.062;9.962;2022-09-03T09:52:14;24.50;1.00
6307;DHT22;3186;54.062;9.962;2022-09-03T09:54:42;24.00;1.00
6307;DHT22;3186;54.062;9.962;2022-09-03T09:57:23;23.70;1.00
6307;DHT22;3186;54.062;9.962;2022-09-03T10:00:02;23.50;1.00
6307;DHT22;3186;54.062;9.962;2022-09-03T10:02:50;23.80;1.00
6307;DHT22;3186;54.062;9.962;2022-09-03T10:05:28;23.60;1.00
6307;DHT22;3186;54.062;9.962;2022-09-03T10:08:17;23.80;1.00
6307;DHT22;3186;54.062;9.962;2022-09-03T10:10:50;24.30;1.00
6307;DHT22;3186;54.062;9.962;2022-09-03T10:13:49;24.80;1.00
6307;DHT22;3186;54.062;9.962;2022-09-03T10:19:02;24.80;1.00
6307;DHT22;3186;54.062;9.962;2022-09-03T10:22:15;25.00;1.00
6307;DHT22;3186;54.062;9.962;2022-09-03T10:24:57;24.50;1.00
6307;DHT22;3186;54.062;9.962;2022-09-03T10:27:23;24.90;1.00
6307;DHT22;3186;54.062;9.962;2022-09-03T10:29:50;24.90;1.00
6307;DHT22;3186;54.062;9.962;2022-09-03T10:32:44;25.10;1.00
6307;DHT22;3186;54.062;9.962;2022-09-03T10:35:31;24.70;1.00
6307;DHT22;3186;54.062;9.962;2022-09-03T10:38:25;24.70;1.00
6307;DHT22;3186;54.062;9.962;2022-09-03T10:46:32;24.60;1.00
6307;DHT22;3186;54.062;9.962;2022-09-03T10:49:28;24.70;1.00
6307;DHT22;3186;54.062;9.962;2022-09-03T10:52:19;24.90;1.00
6307;DHT22;3186;54.062;9.962;2022-09-03T11:00:28;24.30;1.00
6307;DHT22;3186;54.062;9.962;2022-09-03T11:06:04;24.20;1.00
6307;DHT22;3186;54.062;9.962;2022-09-03T11:11:21;24.50;1.00
6307;DHT22;3186;54.062;9.962;2022-09-03T11:14:02;24.40;1.00
6307;DHT22;3186;54.062;9.962;2022-09-03T11:16:48;24.40;1.00
6307;DHT22;3186;54.062;9.962;2022-09-03T11:19:19;24.60;1.00
6307;DHT22;3186;54.062;9.962;2022-09-03T11:21:51;24.60;1.00
6307;DHT22;3186;54.062;9.962;2022-09-03T11:24:26;24.80;1.00
6307;DHT22;3186;54.062;9.962;2022-09-03T11:27:04;24.30;1.00
6307;DHT22;3186;54.062;9.962;2022-09-03T11:29:45;24.60;1.00
6307;DHT22;3186;54.062;9.962;2022-09-03T11:32:21;25.10;1.00
6307;DHT22;3186;54.062;9.962;2022-09-03T11:34:51;25.00;1.00
6307;DHT22;3186;54.062;9.962;2022-09-03T11:40:05;25.20;1.00
6307;DHT22;3186;54.062;9.962;2022-09-03T11:42:40;25.20;1.00
6307;DHT22;3186;54.062;9.962;2022-09-03T11:47:48;25.50;1.00
6307;DHT22;3186;54.062;9.962;2022-09-03T11:50:24;25.70;1.00
6307;DHT22;3186;54.062;9.962;2022-09-03T11:58:45;26.20;1.00
6307;DHT22;3186;54.062;9.962;2022-09-03T12:01:13;26.60;1.00
6307;DHT22;3186;54.062;9.962;2022-09-03T12:03:56;26.40;1.00
6307;DHT22;3186;54.062;9.962;2022-09-03T12:17:53;26.80;1.00
6307;DHT22;3186;54.062;9.962;2022-09-03T12:20:40;27.20;1.00
6307;DHT22;3186;54.062;9.962;2022-09-03T12:23:06;27.50;1.00
6307;DHT22;3186;54.062;9.962;2022-09-03T12:25:42;27.20;1.00
6307;DHT22;3186;54.062;9.962;2022-09-03T12:28:16;27.10;1.00
6307;DHT22;3186;54.062;9.962;2022-09-03T12:30:44;27.50;1.00
6307;DHT22;3186;54.062;9.962;2022-09-03T12:33:15;27.80;1.00
6307;DHT22;3186;54.062;9.962;2022-09-03T12:35:41;27.80;1.00
6307;DHT22;3186;54.062;9.962;2022-09-03T12:38:07;27.60;1.00
6307;DHT22;3186;54.062;9.962;2022-09-03T12:40:41;27.50;1.00
6307;DHT22;3186;54.062;9.962;2022-09-03T12:43:15;27.60;1.00
6307;DHT22;3186;54.062;9.962;2022-09-03T12:45:46;28.00;1.00
6307;DHT22;3186;54.062;9.962;2022-09-03T12:48:14;27.80;1.00
6307;DHT22;3186;54.062;9.962;2022-09-03T12:50:41;27.50;1.00
6307;DHT22;3186;54.062;9.962;2022-09-03T12:53:09;27.80;1.00
6307;DHT22;3186;54.062;9.962;2022-09-03T12:55:52;28.10;1.00
6307;DHT22;3186;54.062;9.962;2022-09-03T12:58:31;28.30;1.00
6307;DHT22;3186;54.062;9.962;2022-09-03T13:01:13;28.30;1.00
6307;DHT22;3186;54.062;9.962;2022-09-03T13:09:18;28.10;1.00
6307;DHT22;3186;54.062;9.962;2022-09-03T13:11:44;27.90;1.00
6307;DHT22;3186;54.062;9.962;2022-09-03T13:14:12;27.70;1.00
6307;DHT22;3186;54.062;9.962;2022-09-03T13:19:43;28.00;1.00
6307;DHT22;3186;54.062;9.962;2022-09-03T13:27:58;27.70;1.00
6307;DHT22;3186;54.062;9.962;2022-09-03T13:33:21;27.80;1.00
6307;DHT22;3186;54.062;9.962;2022-09-03T13:35:59;28.10;1.00
6307;DHT22;3186;54.062;9.962;2022-09-03T13:38:38;28.20;1.00
6307;DHT22;3186;54.062;9.962;2022-09-03T13:44:15;28.30;1.00
6307;DHT22;3186;54.062;9.962;2022-09-03T13:49:32;27.80;1.00
6307;DHT22;3186;54.062;9.962;2022-09-03T13:52:24;28.20;1.00
6307;DHT22;3186;54.062;9.962;2022-09-03T13:54:59;28.50;1.00
6307;DHT22;3186;54.062;9.962;2022-09-03T13:58:07;28.50;1.00
6307;DHT22;3186;54.062;9.962;2022-09-03T14:00:48;28.40;1.00
6307;DHT22;3186;54.062;9.962;2022-09-03T14:06:43;28.50;1.00
6307;DHT22;3186;54.062;9.962;2022-09-03T14:09:25;28.40;1.00
6307;DHT22;3186;54.062;9.962;2022-09-03T14:12:16;28.40;1.00
6307;DHT22;3186;54.062;9.962;2022-09-03T14:15:10;28.50;1.00
6307;DHT22;3186;54.062;9.962;2022-09-03T14:17:58;28.30;1.00
6307;DHT22;3186;54.062;9.962;2022-09-03T14:20:28;28.20;1.00
6307;DHT22;3186;54.062;9.962;2022-09-03T14:25:58;28.60;1.00
6307;DHT22;3186;54.062;9.962;2022-09-03T14:28:29;27.80;1.00
6307;DHT22;3186;54.062;9.962;2022-09-03T14:36:36;28.90;1.00
6307;DHT22;3186;54.062;9.962;2022-09-03T14:39:33;28.70;1.00
6307;DHT22;3186;54.062;9.962;2022-09-03T14:56:27;28.40;1.00
6307;DHT22;3186;54.062;9.962;2022-09-03T15:01:46;28.30;1.00
6307;DHT22;3186;54.062;9.962;2022-09-03T15:04:37;27.80;1.00
6307;DHT22;3186;54.062;9.962;2022-09-03T15:09:59;27.80;1.00
6307;DHT22;3186;54.062;9.962;2022-09-03T15:15:23;27.90;1.00
6307;DHT22;3186;54.062;9.962;2022-09-03T15:20:53;27.90;1.00
6307;DHT22;3186;54.062;9.962;2022-09-03T15:31:46;27.30;1.00
6307;DHT22;3186;54.062;9.962;2022-09-03T15:37:44;27.60;1.00
6307;DHT22;3186;54.062;9.962;2022-09-03T15:40:27;27.70;1.00
6307;DHT22;3186;54.062;9.962;2022-09-03T15:43:28;27.70;1.00
6307;DHT22;3186;54.062;9.962;2022-09-03T15:46:09;27.70;1.00
6307;DHT22;3186;54.062;9.962;2022-09-03T15:48:46;27.70;1.00
6307;DHT22;3186;54.062;9.962;2022-09-03T15:54:47;27.60;1.00
6307;DHT22;3186;54.062;9.962;2022-09-03T15:57:32;27.40;1.00
6307;DHT22;3186;54.062;9.962;2022-09-03T16:00:18;27.30;1.00
6307;DHT22;3186;54.062;9.962;2022-09-03T16:03:10;27.40;1.00
6307;DHT22;3186;54.062;9.962;2022-09-03T16:06:07;27.30;1.00
6307;DHT22;3186;54.062;9.962;2022-09-03T16:08:47;27.20;1.00
6307;DHT22;3186;54.062;9.962;2022-09-03T16:17:51;26.80;1.00
6307;DHT22;3186;54.062;9.962;2022-09-03T16:23:03;26.70;1.00
6307;DHT22;3186;54.062;9.962;2022-09-03T16:28:14;26.10;1.00
6307;DHT22;3186;54.062;9.962;2022-09-03T16:41:43;26.10;1.00
6307;DHT22;3186;54.062;9.962;2022-09-03T16:52:53;25.60;1.00
6307;DHT22;3186;54.062;9.962;2022-09-03T16:58:20;25.40;1.00
6307;DHT22;3186;54.062;9.962;2022-09-03T17:09:14;25.10;1.00
6307;DHT22;3186;54.062;9.962;2022-09-03T17:11:57;24.90;1.00
6307;DHT22;3186;54.062;9.962;2022-09-03T17:17:46;25.00;1.00
6307;DHT22;3186;54.062;9.962;2022-09-03T17:26:26;24.90;1.00
6307;DHT22;3186;54.062;9.962;2022-09-03T17:45:36;24.20;1.00
6307;DHT22;3186;54.062;9.962;2022-09-03T17:51:08;24.20;1.00
6307;DHT22;3186;54.062;9.962;2022-09-03T17:53:48;24.10;1.00
6307;DHT22;3186;54.062;9.962;2022-09-03T17:56:42;23.90;1.00
6307;DHT22;3186;54.062;9.962;2022-09-03T17:59:20;23.90;1.00
6307;DHT22;3186;54.062;9.962;2022-09-03T18:01:53;23.90;1.00
6307;DHT22;3186;54.062;9.962;2022-09-03T18:04:48;23.90;1.00
6307;DHT22;3186;54.062;9.962;2022-09-03T18:16:13;23.50;1.00
6307;DHT22;3186;54.062;9.962;2022-09-03T18:18:46;23.50;1.00
6307;DHT22;3186;54.062;9.962;2022-09-03T18:21:20;23.40;1.00
6307;DHT22;3186;54.062;9.962;2022-09-03T18:27:19;23.20;1.00
6307;DHT22;3186;54.062;9.962;2022-09-03T18:30:07;23.20;1.00
6307;DHT22;3186;54.062;9.962;2022-09-03T18:32:52;23.10;1.00
6307;DHT22;3186;54.062;9.962;2022-09-03T18:35:37;23.00;1.00
6307;DHT22;3186;54.062;9.962;2022-09-03T18:38:27;22.90;1.00
6307;DHT22;3186;54.062;9.962;2022-09-03T18:41:49;22.90;1.00
6307;DHT22;3186;54.062;9.962;2022-09-03T18:48:11;22.70;1.00
6307;DHT22;3186;54.062;9.962;2022-09-03T18:51:23;22.60;1.00
6307;DHT22;3186;54.062;9.962;2022-09-03T18:54:36;22.50;1.00
6307;DHT22;3186;54.062;9.962;2022-09-03T18:57:34;22.40;1.00
6307;DHT22;3186;54.062;9.962;2022-09-03T19:00:21;22.30;1.00
6307;DHT22;3186;54.062;9.962;2022-09-03T19:06:31;22.20;1.00
6307;DHT22;3186;54.062;9.962;2022-09-03T19:23:48;21.70;1.00
6307;DHT22;3186;54.062;9.962;2022-09-03T19:26:39;21.60;1.00
6307;DHT22;3186;54.062;9.962;2022-09-03T19:48:17;21.10;1.00
6307;DHT22;3186;54.062;9.962;2022-09-03T19:51:23;21.10;1.00
6307;DHT22;3186;54.062;9.962;2022-09-03T19:54:10;21.10;1.00
6307;DHT22;3186;54.062;9.962;2022-09-03T19:56:56;20.90;1.00
6307;DHT22;3186;54.062;9.962;2022-09-03T19:59:43;20.80;1.00
6307;DHT22;3186;54.062;9.962;2022-09-03T20:02:38;20.80;1.00
6307;DHT22;3186;54.062;9.962;2022-09-03T20:05:23;20.70;1.00
6307;DHT22;3186;54.062;9.962;2022-09-03T20:08:08;20.60;1.00
6307;DHT22;3186;54.062;9.962;2022-09-03T20:10:56;20.60;1.00
6307;DHT22;3186;54.062;9.962;2022-09-03T20:13:26;20.50;1.00
6307;DHT22;3186;54.062;9.962;2022-09-03T20:16:40;20.20;1.00
6307;DHT22;3186;54.062;9.962;2022-09-03T20:19:45;20.30;1.00
6307;DHT22;3186;54.062;9.962;2022-09-03T20:25:00;20.20;1.00
6307;DHT22;3186;54.062;9.962;2022-09-03T20:33:43;20.20;1.00
6307;DHT22;3186;54.062;9.962;2022-09-03T20:39:17;20.10;1.00
6307;DHT22;3186;54.062;9.962;2022-09-03T20:44:52;20.00;1.00
6307;DHT22;3186;54.062;9.962;2022-09-03T20:55:28;19.90;1.00
6307;DHT22;3186;54.062;9.962;2022-09-03T21:03:45;19.70;1.00
6307;DHT22;3186;54.062;9.962;2022-09-03T21:09:19;19.80;1.00
6307;DHT22;3186;54.062;9.962;2022-09-03T21:12:14;19.70;1.00
6307;DHT22;3186;54.062;9.962;2022-09-03T21:14:51;19.70;1.00
6307;DHT22;3186;54.062;9.962;2022-09-03T21:25:38;19.60;1.00
6307;DHT22;3186;54.062;9.962;2022-09-03T21:30:41;19.60;1.00
6307;DHT22;3186;54.062;9.962;2022-09-03T21:33:22;19.60;1.00
6307;DHT22;3186;54.062;9.962;2022-09-03T21:36:13;19.50;1.00
6307;DHT22;3186;54.062;9.962;2022-09-03T21:38:45;19.50;1.00
6307;DHT22;3186;54.062;9.962;2022-09-03T21:41:29;19.50;1.00
6307;DHT22;3186;54.062;9.962;2022-09-03T21:44:14;19.40;1.00
6307;DHT22;3186;54.062;9.962;2022-09-03T21:47:01;19.40;2.30
6307;DHT22;3186;54.062;9.962;2022-09-03T21:49:34;19.40;1.00
6307;DHT22;3186;54.062;9.962;2022-09-03T21:52:06;19.40;1.40
6307;DHT22;3186;54.062;9.962;2022-09-03T21:54:33;19.30;1.60
6307;DHT22;3186;54.062;9.962;2022-09-03T21:57:11;19.30;2.20
6307;DHT22;3186;54.062;9.962;2022-09-03T22:02:30;19.30;2.70
6307;DHT22;3186;54.062;9.962;2022-09-03T22:05:00;19.20;4.70
6307;DHT22;3186;54.062;9.962;2022-09-03T22:13:08;19.20;4.80
6307;DHT22;3186;54.062;9.962;2022-09-03T22:15:44;19.20;5.00
6307;DHT22;3186;54.062;9.962;2022-09-03T22:18:21;19.10;6.50
6307;DHT22;3186;54.062;9.962;2022-09-03T22:23:34;19.10;7.10
6307;DHT22;3186;54.062;9.962;2022-09-03T22:26:18;19.10;6.50
6307;DHT22;3186;54.062;9.962;2022-09-03T22:29:01;19.10;6.60
6307;DHT22;3186;54.062;9.962;2022-09-03T22:34:38;19.00;8.80
6307;DHT22;3186;54.062;9.962;2022-09-03T22:37:26;19.00;8.80
6307;DHT22;3186;54.062;9.962;2022-09-03T22:43:10;18.80;10.80
6307;DHT22;3186;54.062;9.962;2022-09-03T22:48:34;18.80;11.80
6307;DHT22;3186;54.062;9.962;2022-09-03T22:51:02;18.80;11.80
6307;DHT22;3186;54.062;9.962;2022-09-03T22:56:15;18.80;13.20
6307;DHT22;3186;54.062;9.962;2022-09-03T23:01:57;18.60;14.90
6307;DHT22;3186;54.062;9.962;2022-09-03T23:07:21;18.60;15.30
6307;DHT22;3186;54.062;9.962;2022-09-03T23:10:12;18.50;16.90